Time;durP1;ratioP1;P1;durP2;ratioP2;P2;SDS_P1;SDS_P2;PMS_P1;PMS_P2;Temp;Humidity;BMP_temperature;BMP_pressure;BME280_temperature;BME280_humidity;BME280_pressure;Samples;Min_cycle;Max_cycle;Signal;HPM_P1;HPM_P2
2023/01/10 00:00:36;;;;;;;7.53;0.73;;;7.40;99.90;;;;;;4950470;28;20217;-86
2023/01/10 00:03:07;;;;;;;1.73;0.90;;;7.40;99.90;;;;;;4981186;28;20226;-85
2023/01/10 00:05:37;;;;;;;11.73;1.03;;;7.50;99.90;;;;;;4976006;28;20229;-86
2023/01/10 00:08:04;;;;;;;1.27;1.17;;;7.60;99.90;;;;;;4961185;28;20610;-86
2023/01/10 00:10:31;;;;;;;0.90;0.90;;;7.70;99.90;;;;;;4952873;28;20193;-85
2023/01/10 00:15:41;;;;;;;0.60;0.60;;;7.70;99.90;;;;;;4980017;28;20212;-86
2023/01/10 00:18:08;;;;;;;1.80;0.53;;;7.60;99.90;;;;;;4973886;28;20239;-86
2023/01/10 00:20:34;;;;;;;4.80;1.23;;;7.60;99.90;;;;;;4979164;28;20271;-87
2023/01/10 00:22:59;;;;;;;7.43;1.90;;;7.50;99.90;;;;;;4960293;28;20185;-87
2023/01/10 00:25:25;;;;;;;0.93;0.83;;;7.40;99.90;;;;;;4957630;28;20193;-87
2023/01/10 00:30:40;;;;;;;5.30;1.10;;;7.50;99.90;;;;;;4961994;28;20572;-86
2023/01/10 00:33:11;;;;;;;1.70;1.03;;;7.50;99.90;;;;;;4960418;28;20245;-86
2023/01/10 00:35:36;;;;;;;2.70;1.00;;;7.50;99.90;;;;;;4960961;28;20233;-85
2023/01/10 00:38:05;;;;;;;3.40;1.63;;;7.50;99.90;;;;;;4951744;28;20723;-86
2023/01/10 00:40:32;;;;;;;1.57;0.80;;;7.60;99.90;;;;;;4950451;28;20205;-86
2023/01/10 00:45:44;;;;;;;19.77;0.90;;;7.70;99.90;;;;;;4975780;28;20714;-85
2023/01/10 00:48:11;;;;;;;0.77;0.77;;;7.70;99.90;;;;;;4975275;28;20219;-87
2023/01/10 00:50:37;;;;;;;5.00;1.27;;;7.70;99.90;;;;;;4962668;28;20222;-88
2023/01/10 00:53:03;;;;;;;1.63;1.20;;;7.70;99.90;;;;;;4958046;28;20196;-86
2023/01/10 00:55:29;;;;;;;0.60;0.53;;;7.80;99.90;;;;;;4957081;28;20867;-86
2023/01/10 00:57:55;;;;;;;1.23;1.23;;;7.70;99.90;;;;;;4959888;28;20220;-87
2023/01/10 01:00:20;;;;;;;1.27;1.23;;;7.70;99.90;;;;;;4961536;28;20888;-87
2023/01/10 01:02:48;;;;;;;16.70;2.87;;;7.70;99.90;;;;;;4960864;28;20222;-88
2023/01/10 01:05:14;;;;;;;7.93;1.13;;;7.70;99.90;;;;;;4951595;28;20184;-87
2023/01/10 01:07:40;;;;;;;0.43;0.43;;;7.60;99.90;;;;;;4951284;28;20536;-86
2023/01/10 01:12:51;;;;;;;0.20;0.20;;;7.60;99.90;;;;;;4971335;28;20229;-87
2023/01/10 01:15:17;;;;;;;0.37;0.37;;;7.60;99.90;;;;;;4957511;28;20974;-86
2023/01/10 01:17:42;;;;;;;1.40;1.07;;;7.50;99.90;;;;;;4950787;28;20232;-86
2023/01/10 01:20:09;;;;;;;4.80;0.63;;;7.50;99.90;;;;;;4952082;28;20651;-87
2023/01/10 01:22:35;;;;;;;1.53;1.30;;;7.50;99.90;;;;;;4951249;28;20656;-86
2023/01/10 01:25:03;;;;;;;1.67;1.60;;;7.50;99.90;;;;;;4972260;28;20222;-85
2023/01/10 01:27:29;;;;;;;2.53;1.13;;;7.50;99.90;;;;;;4960247;28;20235;-86
2023/01/10 01:29:55;;;;;;;6.70;1.30;;;7.50;99.90;;;;;;4958520;28;20307;-87
2023/01/10 01:32:20;;;;;;;1.00;0.90;;;7.40;99.90;;;;;;4959673;28;20235;-86
2023/01/10 01:34:46;;;;;;;1.37;1.20;;;7.40;99.90;;;;;;4959141;28;20193;-87
2023/01/10 01:37:12;;;;;;;0.50;0.40;;;7.50;99.90;;;;;;4968656;28;20228;-88
2023/01/10 01:39:38;;;;;;;2.37;1.27;;;7.50;99.90;;;;;;4949235;28;20355;-88
2023/01/10 01:42:05;;;;;;;1.17;0.73;;;7.50;99.90;;;;;;4951479;28;20238;-87
2023/01/10 01:44:34;;;;;;;0.87;0.60;;;7.50;99.90;;;;;;4974506;28;20291;-87
2023/01/10 01:47:05;;;;;;;10.67;1.67;;;7.50;99.90;;;;;;4956806;28;20307;-87
2023/01/10 01:49:35;;;;;;;14.70;2.33;;;7.50;99.90;;;;;;4957201;28;20275;-88
2023/01/10 01:52:05;;;;;;;2.63;1.03;;;7.50;99.90;;;;;;4957431;28;20315;-86
2023/01/10 01:54:33;;;;;;;6.33;2.07;;;7.50;99.90;;;;;;4958834;28;20222;-88
2023/01/10 01:57:12;;;;;;;1.70;0.73;;;7.50;99.90;;;;;;4958922;28;20290;-87
2023/01/10 01:59:42;;;;;;;3.87;0.40;;;7.40;99.90;;;;;;4956703;28;20216;-87
2023/01/10 02:02:15;;;;;;;0.67;0.67;;;7.40;99.90;;;;;;4957615;28;20208;-86
2023/01/10 02:04:52;;;;;;;0.73;0.63;;;7.40;99.90;;;;;;4957418;28;20194;-86
2023/01/10 02:07:19;;;;;;;2.67;0.70;;;7.60;99.90;;;;;;4955117;28;20224;-87
2023/01/10 02:10:03;;;;;;;0.20;0.20;;;7.50;99.90;;;;;;4954660;28;20692;-87
2023/01/10 02:12:30;;;;;;;1.23;0.37;;;7.50;99.90;;;;;;4974904;28;20653;-87
2023/01/10 02:14:58;;;;;;;0.97;0.43;;;7.50;99.90;;;;;;4960312;28;20227;-87
2023/01/10 02:17:23;;;;;;;2.67;0.93;;;7.50;99.90;;;;;;4958337;28;20267;-87
2023/01/10 02:19:54;;;;;;;0.73;0.67;;;7.40;99.90;;;;;;4949839;28;20219;-87
2023/01/10 02:22:40;;;;;;;0.63;0.40;;;7.40;99.90;;;;;;4972825;28;20224;-87
2023/01/10 02:25:28;;;;;;;2.97;0.73;;;7.40;99.90;;;;;;4974087;28;20262;-86
2023/01/10 02:28:16;;;;;;;1.47;0.43;;;7.40;99.90;;;;;;4973208;28;20220;-87
2023/01/10 02:30:45;;;;;;;0.20;0.20;;;7.30;99.90;;;;;;4942840;28;20228;-88
2023/01/10 02:33:38;;;;;;;0.27;0.27;;;7.30;99.90;;;;;;4957036;28;20232;-87
2023/01/10 02:36:10;;;;;;;0.20;0.20;;;7.40;99.90;;;;;;4954370;28;20228;-87
2023/01/10 02:38:48;;;;;;;0.80;0.80;;;7.40;99.90;;;;;;4975543;28;20949;-88
2023/01/10 02:41:22;;;;;;;1.13;1.13;;;7.40;99.90;;;;;;4972794;28;20656;-87
2023/01/10 02:44:06;;;;;;;0.50;0.50;;;7.50;99.90;;;;;;4977950;28;20782;-87
2023/01/10 02:46:34;;;;;;;0.70;0.70;;;7.40;99.90;;;;;;4955920;28;20694;-87
2023/01/10 02:49:00;;;;;;;1.83;1.50;;;7.50;99.90;;;;;;4971028;28;20552;-87
2023/01/10 02:51:28;;;;;;;6.57;0.60;;;7.40;99.90;;;;;;4949049;28;20488;-87
2023/01/10 02:54:26;;;;;;;4.43;1.43;;;7.50;99.90;;;;;;4956529;28;20627;-86
2023/01/10 02:57:03;;;;;;;0.60;0.60;;;7.50;99.90;;;;;;4931701;28;20280;-87
2023/01/10 02:59:53;;;;;;;3.70;0.30;;;7.50;99.90;;;;;;4956709;28;20227;-86
2023/01/10 03:02:43;;;;;;;2.20;1.23;;;7.50;99.90;;;;;;4958840;28;20711;-86
2023/01/10 03:05:17;;;;;;;8.40;1.97;;;7.50;99.90;;;;;;4972696;28;20520;-86
2023/01/10 03:08:27;;;;;;;0.93;0.70;;;7.50;99.90;;;;;;4962784;28;20307;-87
2023/01/10 03:11:03;;;;;;;0.40;0.40;;;7.50;99.90;;;;;;4962352;28;20537;-85
2023/01/10 03:13:53;;;;;;;1.80;1.53;;;7.50;99.90;;;;;;4974276;28;20183;-86
2023/01/10 03:16:25;;;;;;;0.20;0.20;;;7.50;99.90;;;;;;4979746;28;20234;-87
2023/01/10 03:18:56;;;;;;;0.57;0.50;;;7.60;99.90;;;;;;4959905;28;20599;-89
2023/01/10 03:21:23;;;;;;;13.13;1.40;;;7.60;99.90;;;;;;4958331;28;20223;-85
2023/01/10 03:23:56;;;;;;;0.80;0.80;;;7.50;99.90;;;;;;4973429;28;20220;-88
2023/01/10 03:26:29;;;;;;;2.10;0.60;;;7.60;99.90;;;;;;4960043;28;20219;-85
2023/01/10 03:29:04;;;;;;;10.10;0.67;;;7.60;99.90;;;;;;4962960;28;20183;-88
2023/01/10 03:31:38;;;;;;;5.00;1.43;;;7.50;99.90;;;;;;4958640;28;20230;-88
2023/01/10 03:34:05;;;;;;;1.33;1.23;;;7.50;99.90;;;;;;4958912;28;20231;-86
2023/01/10 03:36:42;;;;;;;4.70;1.10;;;7.50;99.90;;;;;;4976503;28;20246;-86
2023/01/10 03:39:23;;;;;;;1.27;1.20;;;7.50;99.90;;;;;;4977754;28;20224;-84
2023/01/10 03:42:06;;;;;;;2.47;1.80;;;7.50;99.90;;;;;;4976778;28;20224;-87
2023/01/10 03:44:47;;;;;;;7.73;1.23;;;7.50;99.90;;;;;;4979063;28;20505;-88
2023/01/10 03:47:31;;;;;;;7.87;1.37;;;7.50;99.90;;;;;;4956064;28;20637;-87
2023/01/10 03:50:02;;;;;;;1.00;0.87;;;7.60;99.90;;;;;;4959269;28;20188;-86
2023/01/10 03:52:31;;;;;;;7.20;0.60;;;7.60;99.90;;;;;;4960288;28;20220;-87
2023/01/10 03:54:57;;;;;;;0.70;0.70;;;7.60;99.90;;;;;;4951657;28;20216;-87
2023/01/10 03:57:24;;;;;;;0.57;0.57;;;7.60;99.90;;;;;;4958456;28;20240;-87
2023/01/10 03:59:53;;;;;;;1.83;1.67;;;7.60;99.90;;;;;;4974113;28;20212;-87
2023/01/10 04:02:19;;;;;;;2.33;1.10;;;7.70;99.90;;;;;;4977940;28;20380;-87
2023/01/10 04:04:45;;;;;;;6.33;0.80;;;7.70;99.90;;;;;;4951619;28;20313;-85
2023/01/10 04:07:10;;;;;;;0.30;0.30;;;7.70;99.90;;;;;;4959834;28;20215;-85
2023/01/10 04:09:36;;;;;;;8.17;2.07;;;7.70;99.90;;;;;;4952406;28;20219;-86
2023/01/10 04:12:02;;;;;;;0.80;0.80;;;7.70;99.90;;;;;;4963173;28;20563;-87
2023/01/10 04:14:28;;;;;;;0.97;0.93;;;7.70;99.90;;;;;;4944708;28;20216;-88
2023/01/10 04:16:54;;;;;;;9.87;1.40;;;7.70;99.90;;;;;;4956282;28;20222;-86
2023/01/10 04:19:20;;;;;;;4.60;0.67;;;7.60;99.90;;;;;;4949541;28;20229;-87
2023/01/10 04:21:46;;;;;;;0.37;0.37;;;7.60;99.90;;;;;;4975963;28;20224;-87
2023/01/10 04:24:11;;;;;;;0.50;0.50;;;7.60;99.90;;;;;;4950983;28;20232;-87
2023/01/10 04:26:37;;;;;;;1.87;1.83;;;7.60;99.90;;;;;;4951684;28;20227;-88
2023/01/10 04:29:04;;;;;;;3.03;1.60;;;7.60;99.90;;;;;;4956505;28;20200;-86
2023/01/10 04:31:31;;;;;;;4.47;1.03;;;7.70;99.90;;;;;;4951778;28;20195;-88
2023/01/10 04:33:56;;;;;;;1.00;1.00;;;7.70;99.90;;;;;;4957105;28;20530;-88
2023/01/10 04:36:22;;;;;;;0.40;0.40;;;7.70;99.90;;;;;;4980810;28;20246;-87
2023/01/10 04:38:48;;;;;;;8.30;0.77;;;7.70;99.90;;;;;;4959804;28;20465;-86
2023/01/10 04:41:14;;;;;;;4.70;0.87;;;7.60;99.90;;;;;;4951437;28;20307;-86
2023/01/10 04:43:39;;;;;;;3.97;0.53;;;7.60;99.90;;;;;;4960956;28;20180;-86
2023/01/10 04:46:05;;;;;;;0.77;0.63;;;7.50;99.90;;;;;;4950722;28;20236;-87
2023/01/10 04:48:31;;;;;;;3.10;0.73;;;7.50;99.90;;;;;;4950647;28;20787;-85
2023/01/10 04:50:56;;;;;;;2.97;0.50;;;7.50;99.90;;;;;;4950971;28;20317;-87
2023/01/10 04:53:22;;;;;;;1.20;1.03;;;7.50;99.90;;;;;;4949843;28;20239;-84
2023/01/10 04:55:48;;;;;;;0.40;0.40;;;7.50;99.90;;;;;;4950641;28;20200;-84
2023/01/10 04:58:14;;;;;;;0.50;0.50;;;7.50;99.90;;;;;;4958815;28;20231;-85
2023/01/10 05:00:40;;;;;;;1.67;0.80;;;7.50;99.90;;;;;;4961176;28;20231;-85
2023/01/10 05:03:06;;;;;;;1.63;1.33;;;7.60;99.90;;;;;;4961064;28;20221;-87
2023/01/10 05:05:32;;;;;;;0.40;0.40;;;7.60;99.90;;;;;;4948739;28;20223;-84
2023/01/10 05:07:57;;;;;;;0.40;0.40;;;7.60;99.90;;;;;;4971624;28;20188;-83
2023/01/10 05:10:23;;;;;;;3.60;1.13;;;7.60;99.90;;;;;;4966860;28;20227;-85
2023/01/10 05:12:49;;;;;;;0.33;0.33;;;7.60;99.90;;;;;;4949629;28;20315;-85
2023/01/10 05:15:15;;;;;;;1.13;0.70;;;7.60;99.90;;;;;;4976269;28;20220;-85
2023/01/10 05:17:40;;;;;;;0.20;0.20;;;7.50;99.90;;;;;;4958597;28;20313;-84
2023/01/10 05:20:07;;;;;;;0.40;0.40;;;7.40;99.90;;;;;;4951051;28;20212;-84
2023/01/10 05:22:33;;;;;;;1.27;0.63;;;7.30;99.90;;;;;;4960921;28;20647;-85
2023/01/10 05:24:59;;;;;;;0.70;0.70;;;7.30;99.90;;;;;;4973616;28;20235;-84
2023/01/10 05:27:25;;;;;;;0.20;0.20;;;7.30;99.90;;;;;;4950469;28;20227;-84
2023/01/10 05:29:50;;;;;;;1.90;0.40;;;7.20;99.90;;;;;;4959595;28;20224;-85
2023/01/10 05:32:16;;;;;;;0.90;0.90;;;7.20;99.90;;;;;;4955639;28;20192;-85
2023/01/10 05:34:42;;;;;;;3.63;1.47;;;7.20;99.90;;;;;;4951709;28;20200;-86
2023/01/10 05:37:08;;;;;;;0.90;0.87;;;7.20;99.90;;;;;;4947982;28;20240;-86
2023/01/10 05:39:34;;;;;;;2.90;0.57;;;7.20;99.90;;;;;;4956262;28;20240;-86
2023/01/10 05:41:59;;;;;;;1.90;1.80;;;7.40;99.90;;;;;;4959872;28;20259;-83
2023/01/10 05:44:25;;;;;;;2.90;0.93;;;7.40;99.90;;;;;;4956391;28;20212;-85
2023/01/10 05:46:51;;;;;;;0.20;0.20;;;7.40;99.90;;;;;;4958557;28;20675;-86
2023/01/10 05:49:17;;;;;;;0.37;0.37;;;7.40;99.90;;;;;;4960011;28;20223;-87
2023/01/10 05:51:42;;;;;;;0.37;0.37;;;7.50;99.90;;;;;;4952962;28;20319;-86
2023/01/10 05:54:08;;;;;;;0.20;0.20;;;7.50;99.90;;;;;;4951107;28;20249;-86
2023/01/10 05:56:34;;;;;;;0.60;0.43;;;7.50;99.90;;;;;;4949162;28;20611;-87
2023/01/10 05:59:00;;;;;;;2.93;2.57;;;7.60;99.90;;;;;;4973696;28;20689;-85
2023/01/10 06:01:25;;;;;;;0.80;0.80;;;7.60;99.90;;;;;;4948461;28;20219;-86
2023/01/10 06:03:51;;;;;;;0.50;0.50;;;7.50;99.90;;;;;;4950611;28;20351;-85
2023/01/10 06:06:17;;;;;;;3.97;0.77;;;7.50;99.90;;;;;;4940317;28;20255;-85
2023/01/10 06:08:43;;;;;;;1.57;0.87;;;7.50;99.90;;;;;;4947787;28;20213;-87
2023/01/10 06:11:08;;;;;;;1.53;1.40;;;7.50;99.90;;;;;;4940770;28;20180;-84
2023/01/10 06:13:34;;;;;;;2.73;0.43;;;7.40;99.90;;;;;;4947361;28;20187;-84
2023/01/10 06:16:00;;;;;;;0.63;0.63;;;7.40;99.90;;;;;;4949410;28;20263;-85
2023/01/10 06:18:26;;;;;;;0.97;0.97;;;7.40;99.90;;;;;;4956489;28;20216;-85
2023/01/10 06:20:51;;;;;;;4.17;1.57;;;7.40;99.90;;;;;;4950879;28;20821;-85
2023/01/10 06:23:17;;;;;;;0.60;0.60;;;7.30;99.90;;;;;;4950061;28;22093;-85
2023/01/10 06:25:43;;;;;;;4.40;1.03;;;7.30;99.90;;;;;;4950265;28;20310;-86
2023/01/10 06:28:10;;;;;;;0.30;0.30;;;7.30;99.90;;;;;;4957534;28;20787;-85
2023/01/10 06:30:37;;;;;;;1.60;0.83;;;7.20;99.90;;;;;;4957846;28;20685;-86
2023/01/10 06:33:04;;;;;;;4.33;2.43;;;7.20;99.90;;;;;;4953139;28;20223;-86
2023/01/10 06:35:30;;;;;;;1.47;1.37;;;7.20;99.90;;;;;;4954831;28;20251;-87
2023/01/10 06:37:57;;;;;;;3.20;2.03;;;7.20;99.90;;;;;;4956514;28;20254;-85
2023/01/10 06:40:23;;;;;;;1.17;1.13;;;7.20;99.90;;;;;;4968679;28;20229;-84
2023/01/10 06:42:49;;;;;;;1.20;1.10;;;7.30;99.90;;;;;;4959350;28;20271;-85
2023/01/10 06:45:15;;;;;;;4.23;1.00;;;7.30;99.90;;;;;;4958312;28;20911;-85
2023/01/10 06:47:41;;;;;;;7.20;1.23;;;7.30;99.90;;;;;;4974079;28;20626;-86
2023/01/10 06:50:07;;;;;;;2.50;1.17;;;7.30;99.90;;;;;;4953843;28;20621;-86
2023/01/10 06:52:33;;;;;;;1.50;1.50;;;7.30;99.90;;;;;;4960326;28;20214;-86
2023/01/10 06:54:59;;;;;;;1.60;1.50;;;7.20;99.90;;;;;;4949889;28;20228;-86
2023/01/10 06:57:27;;;;;;;1.67;1.67;;;7.20;99.90;;;;;;4958472;28;20664;-86
2023/01/10 06:59:53;;;;;;;10.83;1.40;;;7.10;99.90;;;;;;4949068;28;20212;-86
2023/01/10 07:02:18;;;;;;;2.00;1.70;;;7.00;99.90;;;;;;4956521;28;20220;-86
2023/01/10 07:04:44;;;;;;;1.27;0.70;;;6.90;99.90;;;;;;4976594;28;20202;-85
2023/01/10 07:07:13;;;;;;;1.90;1.80;;;6.80;99.90;;;;;;4948083;28;20239;-85
2023/01/10 07:09:39;;;;;;;1.13;0.97;;;6.70;99.90;;;;;;4949413;28;20281;-86
2023/01/10 07:12:05;;;;;;;5.13;1.00;;;6.70;99.90;;;;;;4952223;28;20609;-85
2023/01/10 07:14:31;;;;;;;1.07;1.07;;;6.70;99.90;;;;;;4957123;28;20213;-86
2023/01/10 07:16:56;;;;;;;1.73;1.43;;;6.70;99.90;;;;;;4950694;28;20216;-86
2023/01/10 07:19:22;;;;;;;4.93;2.30;;;6.70;99.90;;;;;;4947829;28;20216;-85
2023/01/10 07:21:48;;;;;;;1.27;1.20;;;6.70;99.90;;;;;;4948647;28;20306;-86
2023/01/10 07:24:14;;;;;;;4.40;2.50;;;6.80;99.90;;;;;;4958343;28;20216;-87
2023/01/10 07:26:39;;;;;;;12.27;2.20;;;6.80;99.90;;;;;;4955886;28;20235;-86
2023/01/10 07:29:05;;;;;;;1.60;1.07;;;6.80;99.90;;;;;;4937272;28;20279;-84
2023/01/10 07:31:31;;;;;;;4.83;2.13;;;6.80;99.90;;;;;;4949338;28;20215;-85
2023/01/10 07:33:57;;;;;;;5.10;4.60;;;6.90;99.90;;;;;;4947838;28;20296;-85
2023/01/10 07:36:22;;;;;;;1.40;1.37;;;6.90;99.90;;;;;;4971467;28;20236;-85
2023/01/10 07:38:48;;;;;;;1.17;1.07;;;6.90;99.90;;;;;;4947700;28;20732;-85
2023/01/10 07:41:14;;;;;;;7.43;1.17;;;6.90;99.90;;;;;;4959133;28;20204;-85
2023/01/10 07:43:40;;;;;;;4.83;2.00;;;6.90;99.90;;;;;;4948080;28;20641;-85
2023/01/10 07:46:08;;;;;;;1.23;1.13;;;6.90;99.90;;;;;;4947658;28;20649;-83
2023/01/10 07:48:35;;;;;;;0.97;0.97;;;6.90;99.90;;;;;;4948888;28;20248;-85
2023/01/10 07:51:01;;;;;;;8.83;1.47;;;7.00;99.90;;;;;;4956816;28;20216;-85
2023/01/10 07:53:28;;;;;;;2.37;1.77;;;7.00;99.90;;;;;;4960466;28;20212;-85
2023/01/10 07:55:58;;;;;;;0.77;0.77;;;7.10;99.90;;;;;;4961262;28;20710;-84
2023/01/10 07:58:23;;;;;;;1.73;1.47;;;7.20;99.90;;;;;;4960583;28;20223;-86
2023/01/10 08:00:49;;;;;;;2.13;1.97;;;7.30;99.90;;;;;;4976302;28;20231;-88
2023/01/10 08:03:16;;;;;;;11.43;5.63;;;7.40;99.90;;;;;;4978095;28;20231;-87
2023/01/10 08:05:42;;;;;;;1.60;1.43;;;7.40;99.90;;;;;;4955983;28;20460;-89
2023/01/10 08:08:10;;;;;;;3.23;3.03;;;7.50;99.90;;;;;;4967309;28;20184;-87
2023/01/10 08:10:37;;;;;;;3.90;2.07;;;7.60;99.90;;;;;;4963027;28;20532;-85
2023/01/10 08:13:03;;;;;;;3.37;2.83;;;7.70;99.90;;;;;;4990522;28;20316;-87
2023/01/10 08:15:30;;;;;;;1.93;1.83;;;7.70;99.90;;;;;;4951088;28;20217;-88
2023/01/10 08:18:02;;;;;;;10.83;2.87;;;7.70;99.90;;;;;;4951675;28;20278;-88
2023/01/10 08:20:28;;;;;;;2.67;2.30;;;7.60;99.90;;;;;;4976268;28;20243;-87
2023/01/10 08:22:57;;;;;;;2.33;2.13;;;7.60;99.90;;;;;;4958545;28;20218;-87
2023/01/10 08:25:23;;;;;;;20.33;1.60;;;7.60;99.90;;;;;;4960586;28;20223;-87
2023/01/10 08:27:49;;;;;;;1.03;1.00;;;7.60;99.90;;;;;;4940644;28;20220;-89
2023/01/10 08:30:15;;;;;;;1.60;1.07;;;7.60;99.90;;;;;;4977854;28;20739;-87
2023/01/10 08:32:41;;;;;;;2.27;2.13;;;7.60;99.90;;;;;;4978222;28;20684;-88
2023/01/10 08:35:07;;;;;;;1.30;0.93;;;7.60;99.90;;;;;;4959106;28;20224;-86
2023/01/10 08:37:34;;;;;;;5.13;2.07;;;7.70;99.90;;;;;;4952282;28;20231;-87
2023/01/10 08:40:00;;;;;;;2.47;1.50;;;7.80;99.90;;;;;;4952175;28;20201;-87
2023/01/10 08:42:25;;;;;;;0.73;0.60;;;7.90;99.90;;;;;;4960914;28;20222;-87
2023/01/10 08:44:51;;;;;;;4.27;1.50;;;8.00;99.90;;;;;;4958359;28;20560;-86
2023/01/10 08:47:17;;;;;;;3.13;1.90;;;8.10;99.90;;;;;;4958118;28;20291;-87
2023/01/10 08:49:42;;;;;;;1.27;1.10;;;8.10;99.90;;;;;;4959007;28;20228;-87
2023/01/10 08:52:08;;;;;;;5.40;1.40;;;8.20;99.90;;;;;;4959515;28;20267;-86
2023/01/10 08:54:34;;;;;;;1.30;1.20;;;8.20;99.90;;;;;;4949864;28;20299;-88
2023/01/10 08:57:00;;;;;;;7.33;1.40;;;8.30;99.90;;;;;;4959400;28;20223;-86
2023/01/10 08:59:25;;;;;;;2.40;1.43;;;8.10;99.90;;;;;;4977409;28;20227;-87
2023/01/10 09:01:51;;;;;;;1.20;1.17;;;8.00;99.90;;;;;;4958494;28;20195;-87
2023/01/10 09:04:17;;;;;;;0.70;0.63;;;8.00;99.90;;;;;;4957863;28;20699;-87
2023/01/10 09:06:43;;;;;;;0.70;0.70;;;8.10;99.90;;;;;;4951316;28;20301;-87
2023/01/10 09:09:09;;;;;;;3.70;1.67;;;7.90;99.90;;;;;;4958953;28;20215;-87
2023/01/10 09:11:35;;;;;;;1.67;1.47;;;7.90;99.90;;;;;;4951131;28;20215;-88
2023/01/10 09:14:01;;;;;;;1.10;1.10;;;7.90;99.90;;;;;;4949892;28;20283;-87
2023/01/10 09:16:27;;;;;;;4.13;1.03;;;7.90;99.90;;;;;;4950173;28;20228;-86
2023/01/10 09:18:54;;;;;;;1.20;1.20;;;7.90;99.90;;;;;;4956312;28;20689;-88
2023/01/10 09:21:23;;;;;;;3.67;1.43;;;7.90;99.90;;;;;;4949853;28;20221;-86
2023/01/10 09:23:49;;;;;;;2.63;2.03;;;7.90;99.90;;;;;;4951549;28;20219;-87
2023/01/10 09:26:14;;;;;;;1.80;1.43;;;7.90;99.90;;;;;;4975853;28;20196;-88
2023/01/10 09:28:40;;;;;;;0.70;0.70;;;8.00;99.90;;;;;;4966177;28;20242;-85
2023/01/10 09:31:07;;;;;;;1.63;1.53;;;7.90;99.90;;;;;;4942674;28;20302;-86
2023/01/10 09:33:35;;;;;;;4.40;3.67;;;8.00;99.90;;;;;;4957118;28;20220;-87
2023/01/10 09:36:01;;;;;;;2.63;1.57;;;7.90;99.90;;;;;;4950106;28;20232;-87
2023/01/10 09:38:26;;;;;;;5.67;1.10;;;8.00;99.90;;;;;;4972225;28;20303;-88
2023/01/10 09:41:01;;;;;;;6.20;1.83;;;8.00;99.90;;;;;;4960884;28;20207;-87
2023/01/10 09:43:46;;;;;;;7.23;4.30;;;8.10;99.90;;;;;;4973162;28;20552;-88
2023/01/10 09:46:21;;;;;;;5.60;3.67;;;8.10;99.90;;;;;;4960070;28;20547;-87
2023/01/10 09:49:03;;;;;;;3.90;2.63;;;8.10;99.90;;;;;;4959502;28;20212;-88
2023/01/10 09:51:37;;;;;;;5.00;3.43;;;8.10;99.90;;;;;;4959813;28;20664;-90
2023/01/10 09:54:13;;;;;;;1.57;1.47;;;8.10;99.90;;;;;;4975708;28;20215;-88
2023/01/10 09:56:39;;;;;;;12.37;3.57;;;8.10;99.90;;;;;;4958633;28;20236;-89
2023/01/10 09:59:11;;;;;;;6.47;2.83;;;8.10;99.90;;;;;;4949067;28;20188;-89
2023/01/10 10:01:37;;;;;;;7.33;5.63;;;8.00;99.90;;;;;;4957560;28;20177;-87
2023/01/10 10:04:33;;;;;;;1.33;0.40;;;8.10;99.90;;;;;;4949507;28;20231;-88
2023/01/10 10:06:59;;;;;;;3.07;2.27;;;8.10;99.90;;;;;;4974403;28;20275;-88
2023/01/10 10:09:29;;;;;;;2.77;1.10;;;8.10;99.90;;;;;;4960038;28;20490;-88
2023/01/10 10:12:04;;;;;;;5.73;1.30;;;8.20;99.90;;;;;;4959348;28;20208;-82
2023/01/10 10:14:59;;;;;;;0.73;0.73;;;8.10;99.90;;;;;;4956048;28;20207;-83
2023/01/10 10:17:37;;;;;;;3.93;2.20;;;8.10;99.90;;;;;;4973450;28;20236;-84
2023/01/10 10:20:21;;;;;;;0.87;0.80;;;8.10;99.90;;;;;;4972412;28;20198;-83
2023/01/10 10:23:07;;;;;;;3.00;1.37;;;8.10;99.90;;;;;;4974059;28;20205;-80
2023/01/10 10:25:50;;;;;;;11.17;3.03;;;8.00;99.90;;;;;;4980659;28;20248;-84
2023/01/10 10:28:41;;;;;;;1.33;1.23;;;8.10;99.90;;;;;;4974372;28;20228;-84
2023/01/10 10:31:34;;;;;;;1.13;0.50;;;8.10;99.90;;;;;;4971581;28;20223;-82
2023/01/10 10:34:37;;;;;;;1.43;1.37;;;8.10;99.90;;;;;;4971176;28;20220;-82
2023/01/10 10:37:20;;;;;;;1.27;1.17;;;8.20;99.90;;;;;;4955457;28;20796;-82
2023/01/10 10:39:52;;;;;;;5.47;2.43;;;8.20;99.90;;;;;;4971110;28;20219;-83
2023/01/10 10:42:18;;;;;;;5.07;1.30;;;8.20;99.90;;;;;;4970220;28;20232;-83
2023/01/10 10:44:48;;;;;;;10.70;2.20;;;8.20;99.90;;;;;;4948395;28;20216;-84
2023/01/10 10:47:17;;;;;;;0.57;0.57;;;8.20;99.90;;;;;;4970707;28;20210;-83
2023/01/10 10:49:48;;;;;;;3.43;2.87;;;8.20;99.90;;;;;;4954844;28;20184;-84
2023/01/10 10:52:33;;;;;;;4.57;1.03;;;8.20;99.90;;;;;;4979073;28;20239;-83
2023/01/10 10:54:59;;;;;;;3.23;1.43;;;8.20;99.90;;;;;;4957080;28;20755;-88
2023/01/10 10:57:27;;;;;;;0.97;0.97;;;8.30;99.90;;;;;;4947704;28;20236;-82
2023/01/10 10:59:54;;;;;;;4.10;2.20;;;8.20;99.90;;;;;;4954723;28;20220;-85
2023/01/10 11:02:26;;;;;;;1.43;1.30;;;8.30;99.90;;;;;;4949589;28;20213;-85
2023/01/10 11:05:05;;;;;;;2.80;2.70;;;8.30;99.90;;;;;;4954909;28;20189;-84
2023/01/10 11:07:34;;;;;;;11.37;1.87;;;8.30;99.90;;;;;;4956275;28;20599;-83
2023/01/10 11:10:16;;;;;;;7.97;1.53;;;8.30;99.90;;;;;;4957142;28;20335;-85
2023/01/10 11:12:46;;;;;;;1.57;1.53;;;8.30;99.90;;;;;;4954180;28;20267;-84
2023/01/10 11:15:45;;;;;;;2.80;1.90;;;8.20;99.90;;;;;;4955215;28;20311;-83
2023/01/10 11:18:24;;;;;;;1.47;1.37;;;8.20;99.90;;;;;;4975430;28;20833;-83
2023/01/10 11:21:03;;;;;;;6.13;1.00;;;8.10;99.90;;;;;;4975180;28;20525;-83
2023/01/10 11:23:37;;;;;;;12.87;1.80;;;8.10;99.90;;;;;;4971850;28;20629;-83
2023/01/10 11:26:05;;;;;;;28.00;2.77;;;8.20;99.90;;;;;;4976755;28;20558;-83
2023/01/10 11:28:33;;;;;;;3.23;2.00;;;8.20;99.90;;;;;;4960005;28;20807;-84
2023/01/10 11:31:03;;;;;;;10.80;0.77;;;8.10;99.90;;;;;;4975418;28;20243;-84
2023/01/10 11:33:38;;;;;;;0.77;0.70;;;8.10;99.90;;;;;;4959788;28;20212;-84
2023/01/10 11:36:11;;;;;;;1.10;0.87;;;8.10;99.90;;;;;;4958609;28;20231;-83
2023/01/10 11:38:37;;;;;;;18.90;1.90;;;8.10;99.90;;;;;;4950482;28;20232;-83
2023/01/10 11:41:26;;;;;;;4.80;2.27;;;8.10;99.90;;;;;;4974670;28;20200;-83
2023/01/10 11:43:51;;;;;;;4.43;1.57;;;8.10;99.90;;;;;;4978993;28;20287;-84
2023/01/10 11:46:20;;;;;;;12.47;0.77;;;8.00;99.90;;;;;;4976803;28;20307;-84
2023/01/10 11:48:59;;;;;;;9.57;1.60;;;8.00;99.90;;;;;;4967380;28;20212;-84
2023/01/10 11:51:30;;;;;;;11.50;2.77;;;8.00;99.90;;;;;;4961325;28;20491;-83
2023/01/10 11:54:06;;;;;;;3.43;2.23;;;7.90;99.90;;;;;;4976106;28;20726;-84
2023/01/10 11:56:35;;;;;;;1.23;1.23;;;8.00;99.90;;;;;;4972555;28;20243;-83
2023/01/10 11:59:12;;;;;;;5.70;1.13;;;8.00;99.90;;;;;;4975336;28;20184;-83
2023/01/10 12:01:43;;;;;;;5.60;2.97;;;8.00;99.90;;;;;;4957904;28;20187;-84
2023/01/10 12:04:19;;;;;;;2.90;1.73;;;7.90;99.90;;;;;;4960108;28;20248;-84
2023/01/10 12:06:56;;;;;;;2.83;2.30;;;7.90;99.90;;;;;;4974973;28;20214;-85
2023/01/10 12:09:35;;;;;;;6.73;3.83;;;7.90;99.90;;;;;;4975639;28;20224;-84
2023/01/10 12:12:25;;;;;;;3.77;2.83;;;7.90;99.90;;;;;;4978177;28;20211;-83
2023/01/10 12:14:52;;;;;;;12.93;3.07;;;7.90;99.90;;;;;;4960656;28;20203;-83
2023/01/10 12:17:21;;;;;;;5.33;3.57;;;7.90;99.90;;;;;;4959488;28;20314;-83
2023/01/10 12:19:49;;;;;;;9.87;3.40;;;7.90;99.90;;;;;;4974587;28;20329;-83
2023/01/10 12:22:15;;;;;;;5.70;1.20;;;7.80;99.90;;;;;;4975690;28;20221;-84
2023/01/10 12:24:46;;;;;;;3.37;2.90;;;7.80;99.90;;;;;;4980039;28;20215;-84
2023/01/10 12:27:14;;;;;;;6.53;2.63;;;7.80;99.90;;;;;;4960906;28;20219;-85
2023/01/10 12:30:01;;;;;;;1.23;1.10;;;7.80;99.90;;;;;;4956042;28;20382;-84
2023/01/10 12:32:35;;;;;;;5.87;2.03;;;7.70;99.90;;;;;;4974613;28;20223;-85
2023/01/10 12:35:05;;;;;;;6.13;1.33;;;7.70;99.90;;;;;;4974274;28;20187;-84
2023/01/10 12:37:50;;;;;;;1.80;1.67;;;7.70;99.90;;;;;;4974077;28;20214;-86
2023/01/10 12:40:46;;;;;;;1.60;1.50;;;7.70;99.90;;;;;;4975733;28;20231;-85
2023/01/10 12:46:09;;;;;;;3.27;1.57;;;7.70;99.90;;;;;;4980615;28;20223;-85
2023/01/10 12:48:47;;;;;;;1.57;1.47;;;7.60;99.90;;;;;;4974875;28;20910;-86
2023/01/10 12:51:18;;;;;;;1.30;1.17;;;7.60;99.90;;;;;;4959396;28;20295;-85
2023/01/10 12:53:52;;;;;;;7.50;3.33;;;7.60;99.90;;;;;;4956066;28;20666;-86
2023/01/10 12:56:19;;;;;;;3.17;1.30;;;7.60;99.90;;;;;;4958245;28;20184;-85
2023/01/10 12:58:56;;;;;;;2.43;1.70;;;7.60;99.90;;;;;;4960056;28;20192;-84
2023/01/10 13:01:31;;;;;;;1.30;1.27;;;7.50;99.90;;;;;;4957455;28;20244;-83
2023/01/10 13:04:05;;;;;;;7.73;2.20;;;7.50;99.90;;;;;;4958999;28;20223;-84
2023/01/10 13:06:38;;;;;;;6.30;2.30;;;7.50;99.90;;;;;;4958109;28;20446;-86
2023/01/10 13:09:18;;;;;;;1.87;1.70;;;7.40;99.90;;;;;;4955199;28;20302;-83
2023/01/10 13:12:07;;;;;;;3.10;2.57;;;7.40;99.90;;;;;;4960825;28;20662;-84
2023/01/10 13:14:56;;;;;;;4.93;2.77;;;7.40;99.90;;;;;;4966689;28;20221;-85
2023/01/10 13:17:31;;;;;;;2.93;1.93;;;7.30;99.90;;;;;;4974995;28;20687;-84
2023/01/10 13:20:15;;;;;;;4.17;2.93;;;7.30;99.90;;;;;;4976105;28;20191;-86
2023/01/10 13:22:42;;;;;;;0.70;0.70;;;7.30;99.90;;;;;;4979658;28;20707;-86
2023/01/10 13:25:29;;;;;;;2.87;2.67;;;7.30;99.90;;;;;;4977689;28;20228;-85